Time;durP1;ratioP1;P1;durP2;ratioP2;P2;SDS_P1;SDS_P2;PMS_P1;PMS_P2;Temp;Humidity;BMP_temperature;BMP_pressure;BME280_temperature;BME280_humidity;BME280_pressure;Samples;Min_cycle;Max_cycle;Signal;HPM_P1;HPM_P2
2023/05/16 00:00:24;;;;;;;6.90;3.33;;;11.40;99.90;;;;;;4977744;28;20453;-73
2023/05/16 00:02:52;;;;;;;8.40;3.60;;;11.40;99.90;;;;;;4977212;28;20926;-73
2023/05/16 00:05:21;;;;;;;7.27;3.60;;;11.40;99.90;;;;;;4977618;28;20993;-72
2023/05/16 00:07:49;;;;;;;9.97;4.03;;;11.50;99.90;;;;;;4977669;28;20438;-72
2023/05/16 00:10:17;;;;;;;8.57;3.50;;;11.40;99.90;;;;;;4977250;28;20488;-72
2023/05/16 00:12:50;;;;;;;7.70;3.70;;;11.40;99.90;;;;;;4977609;28;20568;-72
2023/05/16 00:15:19;;;;;;;9.70;4.27;;;11.40;99.90;;;;;;4977136;28;20458;-72
2023/05/16 00:17:48;;;;;;;9.37;3.60;;;11.40;99.90;;;;;;4976986;28;20472;-73
2023/05/16 00:20:21;;;;;;;7.87;3.67;;;11.40;99.90;;;;;;4976869;28;20445;-72
2023/05/16 00:22:50;;;;;;;10.17;3.83;;;11.40;99.90;;;;;;4977202;28;20445;-73
2023/05/16 00:25:18;;;;;;;11.10;4.00;;;11.40;99.90;;;;;;4976804;28;20564;-73
2023/05/16 00:27:47;;;;;;;11.70;4.40;;;11.40;99.90;;;;;;4976887;28;20442;-73
2023/05/16 00:30:16;;;;;;;7.97;4.07;;;11.40;99.90;;;;;;4975474;28;20442;-74
2023/05/16 00:32:44;;;;;;;11.10;4.50;;;11.40;99.90;;;;;;4976529;28;20560;-70
2023/05/16 00:35:12;;;;;;;14.03;4.70;;;11.40;99.90;;;;;;4976459;28;20457;-70
2023/05/16 00:37:42;;;;;;;9.50;4.47;;;11.40;99.90;;;;;;4975208;28;20836;-71
2023/05/16 00:40:11;;;;;;;10.80;4.30;;;11.30;99.90;;;;;;4975234;28;20963;-71
2023/05/16 00:42:39;;;;;;;14.03;4.43;;;11.30;99.90;;;;;;4976848;28;20445;-70
2023/05/16 00:45:10;;;;;;;10.30;4.57;;;11.30;99.90;;;;;;4975386;28;20461;-70
2023/05/16 00:47:38;;;;;;;12.50;4.63;;;11.30;99.90;;;;;;4974950;28;20442;-71
2023/05/16 00:50:07;;;;;;;13.03;4.97;;;11.30;99.90;;;;;;4975061;28;20445;-70
2023/05/16 00:52:35;;;;;;;12.60;3.70;;;11.20;99.90;;;;;;4976040;28;20476;-70
2023/05/16 00:55:04;;;;;;;10.43;4.43;;;11.20;99.90;;;;;;4974786;28;20572;-71
2023/05/16 00:57:34;;;;;;;11.60;4.57;;;11.20;99.90;;;;;;4976103;28;20423;-70
2023/05/16 01:00:04;;;;;;;10.97;4.07;;;11.20;99.90;;;;;;4975996;28;20445;-70
2023/05/16 01:02:35;;;;;;;12.77;4.97;;;11.20;99.90;;;;;;4975969;28;20437;-70
2023/05/16 01:05:05;;;;;;;10.37;4.33;;;11.20;99.90;;;;;;4974732;28;20536;-70
2023/05/16 01:07:33;;;;;;;10.77;4.33;;;11.20;99.90;;;;;;4974644;28;20919;-70
2023/05/16 01:10:02;;;;;;;10.70;3.87;;;11.20;99.90;;;;;;4974533;28;20446;-71
2023/05/16 01:12:38;;;;;;;11.07;3.97;;;11.20;99.90;;;;;;4975695;28;21009;-70
2023/05/16 01:15:09;;;;;;;9.17;3.80;;;11.20;99.90;;;;;;4975847;28;20464;-71
2023/05/16 01:17:50;;;;;;;13.23;4.90;;;11.20;99.90;;;;;;4975636;28;20494;-70
2023/05/16 01:20:30;;;;;;;10.20;4.10;;;11.20;99.90;;;;;;4976060;28;20434;-70
2023/05/16 01:23:13;;;;;;;11.73;3.90;;;11.20;99.90;;;;;;4974226;28;20441;-71
2023/05/16 01:25:57;;;;;;;13.67;4.53;;;11.10;99.90;;;;;;4975580;28;20486;-71
2023/05/16 01:28:27;;;;;;;10.13;4.20;;;11.10;99.90;;;;;;4976146;28;20462;-70
2023/05/16 01:30:55;;;;;;;12.03;4.20;;;11.10;99.90;;;;;;4974222;28;20484;-70
2023/05/16 01:33:23;;;;;;;13.80;4.70;;;11.10;99.90;;;;;;4974098;28;20974;-70
2023/05/16 01:35:58;;;;;;;15.40;4.57;;;11.10;99.90;;;;;;4973983;28;20462;-70
2023/05/16 01:38:30;;;;;;;11.97;4.33;;;11.10;99.90;;;;;;4974098;28;20471;-70
2023/05/16 01:41:04;;;;;;;12.83;4.73;;;11.10;99.90;;;;;;4973941;28;21006;-70
2023/05/16 01:43:37;;;;;;;13.37;4.50;;;11.00;99.90;;;;;;4974066;28;20469;-70
2023/05/16 01:46:14;;;;;;;10.43;4.20;;;11.00;99.90;;;;;;4973468;28;20469;-70
2023/05/16 01:48:51;;;;;;;12.90;4.60;;;11.00;99.90;;;;;;4975137;28;20425;-70
2023/05/16 01:51:22;;;;;;;12.00;4.10;;;11.00;99.90;;;;;;4974137;28;20437;-70
2023/05/16 01:53:52;;;;;;;9.80;4.33;;;11.00;99.90;;;;;;4973981;28;20469;-70
2023/05/16 01:56:21;;;;;;;11.63;4.23;;;11.00;99.90;;;;;;4975713;28;20457;-70
2023/05/16 01:58:53;;;;;;;11.43;4.37;;;11.00;99.90;;;;;;4974044;28;20489;-70
2023/05/16 02:01:21;;;;;;;10.87;4.43;;;11.00;99.90;;;;;;4975406;28;20481;-70
2023/05/16 02:03:49;;;;;;;10.93;4.33;;;11.00;99.90;;;;;;4975505;28;20835;-71
2023/05/16 02:06:18;;;;;;;13.17;4.17;;;11.00;99.90;;;;;;4973568;28;20470;-70
2023/05/16 02:08:46;;;;;;;13.97;4.80;;;11.00;99.90;;;;;;4974759;28;20473;-70
2023/05/16 02:11:17;;;;;;;19.83;4.90;;;11.00;99.90;;;;;;4973697;28;20841;-70
2023/05/16 02:13:45;;;;;;;12.73;4.47;;;11.00;99.90;;;;;;4973341;28;20505;-70
2023/05/16 02:16:15;;;;;;;11.93;4.83;;;11.00;99.90;;;;;;4974709;28;20464;-70
2023/05/16 02:18:44;;;;;;;12.37;4.40;;;10.90;99.90;;;;;;4974431;28;20446;-70
2023/05/16 02:21:12;;;;;;;12.43;4.77;;;10.90;99.90;;;;;;4973177;28;20473;-70
2023/05/16 02:23:41;;;;;;;8.30;3.97;;;10.90;99.90;;;;;;4973516;28;20442;-70
2023/05/16 02:26:09;;;;;;;14.30;4.57;;;10.90;99.90;;;;;;4973080;28;21017;-70
2023/05/16 02:28:37;;;;;;;11.90;4.10;;;10.90;99.90;;;;;;4973216;28;20458;-70
2023/05/16 02:31:05;;;;;;;14.23;5.20;;;10.90;99.90;;;;;;4973162;28;20453;-70
2023/05/16 02:33:34;;;;;;;14.20;4.73;;;10.80;99.90;;;;;;4972974;28;20469;-70
2023/05/16 02:36:03;;;;;;;10.50;3.80;;;10.80;99.90;;;;;;4974461;28;20460;-70
2023/05/16 02:38:31;;;;;;;12.67;4.33;;;10.70;99.90;;;;;;4974324;28;20946;-70
2023/05/16 02:40:59;;;;;;;13.57;4.37;;;10.70;99.90;;;;;;4973104;28;20438;-70
2023/05/16 02:43:27;;;;;;;12.70;4.77;;;10.70;99.90;;;;;;4974470;28;20456;-71
2023/05/16 02:45:55;;;;;;;10.37;4.40;;;10.60;99.90;;;;;;4974624;28;20461;-71
2023/05/16 02:48:23;;;;;;;15.90;4.37;;;10.60;99.90;;;;;;4974242;28;20525;-70
2023/05/16 02:50:52;;;;;;;13.97;4.20;;;10.60;99.90;;;;;;4973216;28;20450;-72
2023/05/16 02:53:21;;;;;;;17.23;4.70;;;10.50;99.90;;;;;;4975620;28;20549;-72
2023/05/16 02:55:49;;;;;;;12.90;4.83;;;10.50;99.90;;;;;;4973600;28;20461;-72
2023/05/16 02:58:17;;;;;;;12.63;3.83;;;10.50;99.90;;;;;;4976006;28;20476;-71
2023/05/16 03:00:45;;;;;;;17.80;4.43;;;10.50;99.90;;;;;;4977032;28;20955;-72
2023/05/16 03:03:13;;;;;;;17.50;4.57;;;10.40;99.90;;;;;;4977016;28;20453;-71
2023/05/16 03:05:41;;;;;;;10.03;4.23;;;10.40;99.90;;;;;;4976810;28;20784;-71
2023/05/16 03:08:11;;;;;;;14.97;4.30;;;10.40;99.90;;;;;;4978281;28;20448;-71
2023/05/16 03:10:39;;;;;;;15.50;5.00;;;10.30;99.90;;;;;;4976696;28;20816;-71
2023/05/16 03:13:07;;;;;;;17.13;4.50;;;10.30;99.90;;;;;;4976675;28;21026;-71
2023/05/16 03:15:35;;;;;;;17.63;3.90;;;10.20;99.90;;;;;;4976764;28;20505;-72
2023/05/16 03:18:03;;;;;;;15.90;4.40;;;10.20;99.90;;;;;;4976493;28;20519;-71
2023/05/16 03:20:31;;;;;;;17.03;4.20;;;10.10;99.90;;;;;;4976523;28;20442;-71
2023/05/16 03:22:59;;;;;;;10.33;3.63;;;10.10;99.90;;;;;;4978092;28;20436;-71
2023/05/16 03:25:30;;;;;;;12.27;4.37;;;10.10;99.90;;;;;;4977654;28;20461;-71
2023/05/16 03:27:58;;;;;;;13.63;3.90;;;10.10;99.90;;;;;;4977682;28;20450;-71
2023/05/16 03:30:26;;;;;;;11.83;4.10;;;10.00;99.90;;;;;;4978056;28;20446;-71
2023/05/16 03:32:55;;;;;;;15.60;4.70;;;10.00;99.90;;;;;;4977929;28;20999;-71
2023/05/16 03:35:23;;;;;;;13.03;4.50;;;10.00;99.90;;;;;;4977861;28;21017;-71
2023/05/16 03:37:52;;;;;;;11.57;4.17;;;10.00;99.90;;;;;;4976191;28;20457;-71
2023/05/16 03:40:20;;;;;;;15.30;4.53;;;9.90;99.90;;;;;;4976056;28;20445;-71
2023/05/16 03:42:50;;;;;;;14.67;4.10;;;9.90;99.90;;;;;;4977374;28;20449;-71
2023/05/16 03:45:18;;;;;;;11.87;4.23;;;9.90;99.90;;;;;;4977391;28;20457;-71
2023/05/16 03:47:46;;;;;;;14.23;4.43;;;9.90;99.90;;;;;;4976015;28;20449;-71
2023/05/16 03:50:15;;;;;;;11.67;4.00;;;9.90;99.90;;;;;;4977273;28;20446;-71
2023/05/16 03:52:43;;;;;;;13.93;4.57;;;9.80;99.90;;;;;;4977486;28;20441;-71
2023/05/16 03:55:13;;;;;;;11.20;3.23;;;9.80;99.90;;;;;;4976991;28;20477;-71
2023/05/16 03:57:42;;;;;;;13.33;4.17;;;9.80;99.90;;;;;;4977101;28;20446;-71
2023/05/16 04:00:13;;;;;;;13.17;4.40;;;9.80;99.90;;;;;;4977521;28;20442;-71
2023/05/16 04:02:42;;;;;;;11.77;4.43;;;9.70;99.90;;;;;;4976884;28;20461;-72
2023/05/16 04:05:12;;;;;;;11.03;3.77;;;9.70;99.90;;;;;;4976874;28;20557;-72
2023/05/16 04:07:41;;;;;;;17.00;4.77;;;9.70;99.90;;;;;;4976956;28;20434;-71
2023/05/16 04:10:10;;;;;;;11.20;3.77;;;9.70;99.90;;;;;;4975792;28;20460;-72
2023/05/16 04:12:38;;;;;;;15.70;4.60;;;9.70;99.90;;;;;;4977306;28;20501;-72
2023/05/16 04:15:07;;;;;;;9.80;3.70;;;9.60;99.90;;;;;;4976748;28;20893;-72
2023/05/16 04:17:36;;;;;;;12.50;3.90;;;9.60;99.90;;;;;;4975339;28;20461;-71
2023/05/16 04:20:05;;;;;;;12.10;3.63;;;9.70;99.90;;;;;;4976626;28;20441;-72
2023/05/16 04:22:33;;;;;;;11.80;3.97;;;9.60;99.90;;;;;;4976671;28;20445;-72
2023/05/16 04:25:02;;;;;;;9.57;3.60;;;9.60;99.90;;;;;;4976513;28;20453;-72
2023/05/16 04:27:30;;;;;;;14.80;4.00;;;9.60;99.90;;;;;;4976518;28;20943;-71
2023/05/16 04:29:59;;;;;;;14.17;4.20;;;9.60;99.90;;;;;;4976369;28;20442;-71
2023/05/16 04:32:27;;;;;;;11.60;3.53;;;9.60;99.90;;;;;;4976383;28;20548;-71
2023/05/16 04:34:57;;;;;;;12.70;4.00;;;9.60;99.90;;;;;;4975089;28;20568;-72
2023/05/16 04:37:25;;;;;;;13.23;4.30;;;9.60;99.90;;;;;;4974987;28;20446;-72
2023/05/16 04:39:54;;;;;;;13.03;4.17;;;9.60;99.90;;;;;;4976313;28;20962;-72
2023/05/16 04:42:23;;;;;;;10.70;3.90;;;9.60;99.90;;;;;;4974851;28;20448;-72
2023/05/16 04:44:51;;;;;;;11.60;3.80;;;9.60;99.90;;;;;;4976322;28;20556;-71
2023/05/16 04:47:19;;;;;;;14.10;4.20;;;9.60;99.90;;;;;;4976121;28;20444;-72
2023/05/16 04:49:47;;;;;;;17.80;4.60;;;9.60;99.90;;;;;;4976385;28;20446;-72
2023/05/16 04:52:17;;;;;;;11.63;3.93;;;9.60;99.90;;;;;;4974721;28;20461;-72
2023/05/16 04:54:45;;;;;;;12.90;3.90;;;9.60;99.90;;;;;;4975765;28;20481;-72
2023/05/16 04:57:13;;;;;;;17.37;4.33;;;9.60;99.90;;;;;;4976104;28;20445;-72
2023/05/16 04:59:41;;;;;;;17.80;4.77;;;9.60;99.90;;;;;;4975809;28;21013;-72
2023/05/16 05:02:10;;;;;;;12.50;3.57;;;9.50;99.90;;;;;;4975842;28;20441;-72
2023/05/16 05:04:38;;;;;;;12.30;3.77;;;9.60;99.90;;;;;;4975718;28;20528;-72
2023/05/16 05:07:07;;;;;;;13.30;3.67;;;9.60;99.90;;;;;;4974551;28;20500;-72
2023/05/16 05:09:36;;;;;;;15.63;3.87;;;9.60;99.90;;;;;;4976126;28;20438;-72
2023/05/16 05:12:05;;;;;;;9.37;3.40;;;9.60;99.90;;;;;;4974405;28;20447;-72
2023/05/16 05:14:33;;;;;;;10.83;3.63;;;9.60;99.90;;;;;;4974240;28;20890;-72
2023/05/16 05:17:01;;;;;;;13.60;3.70;;;9.60;99.90;;;;;;4975546;28;20461;-72
2023/05/16 05:19:29;;;;;;;14.53;4.50;;;9.60;99.90;;;;;;4974995;28;20430;-72
2023/05/16 05:21:58;;;;;;;11.90;3.80;;;9.70;99.90;;;;;;4976172;28;20886;-72
2023/05/16 05:24:26;;;;;;;14.70;4.50;;;9.70;99.90;;;;;;4975551;28;20808;-72
2023/05/16 05:26:56;;;;;;;12.70;3.90;;;9.70;99.90;;;;;;4974155;28;20452;-72
2023/05/16 05:29:24;;;;;;;11.23;3.70;;;9.80;99.90;;;;;;4974153;28;20453;-72
2023/05/16 05:31:52;;;;;;;17.00;4.00;;;9.80;99.90;;;;;;4975362;28;20951;-73
2023/05/16 05:34:20;;;;;;;13.07;4.43;;;9.80;99.90;;;;;;4975338;28;20535;-73
2023/05/16 05:36:48;;;;;;;12.30;3.90;;;9.90;99.90;;;;;;4975136;28;20445;-73
2023/05/16 05:39:16;;;;;;;14.73;4.23;;;9.90;99.90;;;;;;4975216;28;20496;-73
2023/05/16 05:41:45;;;;;;;13.60;4.80;;;10.00;99.90;;;;;;4975035;28;20441;-73
2023/05/16 05:44:14;;;;;;;12.30;3.97;;;10.00;99.90;;;;;;4975148;28;20529;-73
2023/05/16 05:46:43;;;;;;;12.17;3.77;;;10.20;99.90;;;;;;4975231;28;20438;-73
2023/05/16 05:49:11;;;;;;;10.90;3.60;;;10.20;99.90;;;;;;4973652;28;20875;-73
2023/05/16 05:51:39;;;;;;;11.90;3.37;;;10.40;99.90;;;;;;4974968;28;21002;-72
2023/05/16 05:54:07;;;;;;;9.50;3.40;;;10.50;99.90;;;;;;4974787;28;20453;-73
2023/05/16 05:56:36;;;;;;;8.60;3.33;;;10.60;99.90;;;;;;4973670;28;20457;-73
2023/05/16 05:59:04;;;;;;;10.07;3.23;;;10.80;99.90;;;;;;4975463;28;20457;-72
2023/05/16 06:01:33;;;;;;;11.77;3.87;;;11.00;99.90;;;;;;4975383;28;20529;-74
2023/05/16 06:04:01;;;;;;;14.27;3.80;;;11.20;99.90;;;;;;4974621;28;20437;-72
2023/05/16 06:06:30;;;;;;;9.73;3.47;;;11.40;99.90;;;;;;4974622;28;20453;-72
2023/05/16 06:08:58;;;;;;;11.37;3.47;;;11.60;99.90;;;;;;4974869;28;20441;-72
2023/05/16 06:11:26;;;;;;;12.90;3.20;;;11.70;99.90;;;;;;4974581;28;20454;-72
2023/05/16 06:13:54;;;;;;;9.30;3.30;;;11.90;99.90;;;;;;4973928;28;20485;-72
2023/05/16 06:16:25;;;;;;;8.77;3.53;;;12.10;99.90;;;;;;4975192;28;20915;-71
2023/05/16 06:18:54;;;;;;;8.60;2.90;;;12.20;99.90;;;;;;4975161;28;20433;-72
2023/05/16 06:21:23;;;;;;;8.67;3.30;;;12.40;99.90;;;;;;4973667;28;20452;-74
2023/05/16 06:23:51;;;;;;;11.67;2.90;;;12.50;99.90;;;;;;4974748;28;20441;-74
2023/05/16 06:26:19;;;;;;;12.73;3.37;;;12.60;99.90;;;;;;4974639;28;20508;-74
2023/05/16 06:28:47;;;;;;;9.53;3.13;;;12.70;99.90;;;;;;4975104;28;20465;-73
2023/05/16 06:31:15;;;;;;;6.90;2.63;;;12.80;99.90;;;;;;4974450;28;20481;-73
2023/05/16 06:33:43;;;;;;;11.53;3.93;;;12.60;99.90;;;;;;4974446;28;20458;-74
2023/05/16 06:36:13;;;;;;;9.70;3.00;;;12.70;99.90;;;;;;4974219;28;20509;-74
2023/05/16 06:38:41;;;;;;;10.87;3.70;;;12.80;99.90;;;;;;4973161;28;20956;-73
2023/05/16 06:41:09;;;;;;;8.63;3.30;;;12.90;99.90;;;;;;4973259;28;20449;-74
2023/05/16 06:43:37;;;;;;;13.93;4.10;;;13.00;99.90;;;;;;4975094;28;20437;-73
2023/05/16 06:46:05;;;;;;;6.87;2.47;;;13.00;99.90;;;;;;4973297;28;20544;-74
2023/05/16 06:48:33;;;;;;;10.97;3.40;;;13.10;99.90;;;;;;4974656;28;20445;-74
2023/05/16 06:51:01;;;;;;;6.90;2.33;;;13.20;99.90;;;;;;4974286;28;20817;-74
2023/05/16 06:53:31;;;;;;;9.33;3.30;;;13.30;99.90;;;;;;4973185;28;20805;-73
2023/05/16 06:55:59;;;;;;;12.33;3.30;;;13.40;99.90;;;;;;4974632;28;20599;-74
2023/05/16 06:58:27;;;;;;;11.30;2.97;;;13.40;99.90;;;;;;4973154;28;20449;-74
2023/05/16 07:00:55;;;;;;;11.87;2.80;;;13.50;99.90;;;;;;4974883;28;20950;-74
2023/05/16 07:03:23;;;;;;;7.60;2.40;;;13.50;99.90;;;;;;4974414;28;20437;-74
2023/05/16 07:05:52;;;;;;;11.00;3.27;;;13.60;99.90;;;;;;4973005;28;20573;-74
2023/05/16 07:08:20;;;;;;;7.80;2.30;;;13.70;99.90;;;;;;4974503;28;20994;-73
2023/05/16 07:10:50;;;;;;;12.70;3.03;;;13.70;99.90;;;;;;4973159;28;20477;-74
2023/05/16 07:13:18;;;;;;;7.97;2.70;;;13.70;99.90;;;;;;4974318;28;20541;-74
2023/05/16 07:15:46;;;;;;;10.10;2.47;;;13.80;99.90;;;;;;4974138;28;20483;-74
2023/05/16 07:18:14;;;;;;;9.10;1.97;;;13.70;99.90;;;;;;4974367;28;20845;-73
2023/05/16 07:20:42;;;;;;;8.33;2.50;;;13.60;99.90;;;;;;4974236;28;20806;-73
2023/05/16 07:23:11;;;;;;;9.73;2.70;;;13.40;99.90;;;;;;4974351;28;21018;-73
2023/05/16 07:25:39;;;;;;;8.50;2.60;;;13.30;99.90;;;;;;4974639;28;20488;-73
2023/05/16 07:28:08;;;;;;;7.00;2.63;;;13.20;99.90;;;;;;4974383;28;20942;-73
2023/05/16 07:30:36;;;;;;;5.33;2.00;;;13.20;99.90;;;;;;4974499;28;20532;-74
2023/05/16 07:33:05;;;;;;;9.70;2.60;;;13.30;99.90;;;;;;4974196;28;20439;-74
2023/05/16 07:35:33;;;;;;;7.80;2.50;;;13.40;99.90;;;;;;4974096;28;20485;-74
2023/05/16 07:38:01;;;;;;;8.83;2.73;;;13.30;99.90;;;;;;4973071;28;20810;-75
2023/05/16 07:40:29;;;;;;;7.57;2.40;;;13.30;99.90;;;;;;4974189;28;20438;-74
2023/05/16 07:42:58;;;;;;;7.77;2.33;;;13.20;99.90;;;;;;4974655;28;20444;-74
2023/05/16 07:45:28;;;;;;;6.60;2.70;;;13.20;99.90;;;;;;4977550;28;20459;-73
2023/05/16 07:47:56;;;;;;;8.93;2.60;;;13.20;99.90;;;;;;4977595;28;20867;-71
2023/05/16 07:50:25;;;;;;;8.90;2.23;;;13.10;99.90;;;;;;4977399;28;20508;-72
2023/05/16 07:52:53;;;;;;;7.60;2.30;;;13.10;99.90;;;;;;4977539;28;20441;-71
2023/05/16 07:55:22;;;;;;;8.37;2.47;;;13.10;99.90;;;;;;4976955;28;20604;-72
2023/05/16 07:57:50;;;;;;;9.10;2.43;;;13.20;99.90;;;;;;4975780;28;20442;-71
2023/05/16 08:00:20;;;;;;;10.07;3.07;;;13.30;99.90;;;;;;4977326;28;20798;-71
2023/05/16 08:02:49;;;;;;;14.40;2.20;;;13.50;99.90;;;;;;4977303;28;20885;-71
2023/05/16 08:05:18;;;;;;;7.47;2.30;;;13.70;99.90;;;;;;4977055;28;20528;-73
2023/05/16 08:07:46;;;;;;;9.47;2.87;;;13.80;99.90;;;;;;4977225;28;20776;-74
2023/05/16 08:10:14;;;;;;;7.83;2.53;;;13.80;99.90;;;;;;4975993;28;20442;-74
2023/05/16 08:12:42;;;;;;;8.73;2.17;;;13.80;99.90;;;;;;4977070;28;20435;-73
2023/05/16 08:15:13;;;;;;;7.17;2.20;;;13.70;99.90;;;;;;4975718;28;21059;-74
2023/05/16 08:17:41;;;;;;;7.13;2.50;;;13.60;99.90;;;;;;4975558;28;20461;-73
2023/05/16 08:20:12;;;;;;;8.10;2.23;;;13.60;99.80;;;;;;4977317;28;20444;-73
2023/05/16 08:22:40;;;;;;;7.13;1.80;;;13.50;99.60;;;;;;4977921;28;20428;-74
2023/05/16 08:25:09;;;;;;;7.77;2.60;;;13.50;99.70;;;;;;4977255;28;20983;-73
2023/05/16 08:27:37;;;;;;;11.97;2.70;;;13.70;99.90;;;;;;4977896;28;20436;-73
2023/05/16 08:30:06;;;;;;;7.67;2.73;;;13.80;99.90;;;;;;4976934;28;20473;-73
2023/05/16 08:32:34;;;;;;;9.33;2.90;;;14.00;99.80;;;;;;4976377;28;20449;-74
2023/05/16 08:35:02;;;;;;;7.60;2.13;;;14.10;99.70;;;;;;4976803;28;20465;-74
2023/05/16 08:37:32;;;;;;;6.20;1.93;;;14.10;99.50;;;;;;4975242;28;20896;-74
2023/05/16 08:40:00;;;;;;;6.77;1.90;;;14.00;99.40;;;;;;4976659;28;20873;-74
2023/05/16 08:42:28;;;;;;;10.83;2.67;;;13.90;99.20;;;;;;4977007;28;20437;-73
2023/05/16 08:44:56;;;;;;;9.53;2.30;;;13.70;99.40;;;;;;4976732;28;20500;-73
2023/05/16 08:47:26;;;;;;;7.00;2.57;;;13.60;98.90;;;;;;4975541;28;20454;-74
2023/05/16 08:49:57;;;;;;;8.03;2.40;;;13.60;99.00;;;;;;4975442;28;20942;-74
2023/05/16 08:52:28;;;;;;;9.73;2.47;;;13.60;99.10;;;;;;4976857;28;20429;-74
2023/05/16 08:55:02;;;;;;;9.33;2.50;;;13.80;99.40;;;;;;4975236;28;20549;-73
2023/05/16 08:57:38;;;;;;;6.30;2.00;;;13.90;99.50;;;;;;4976790;28;20457;-74
2023/05/16 09:00:10;;;;;;;6.83;2.00;;;14.10;99.50;;;;;;4976646;28;20437;-74
2023/05/16 09:02:39;;;;;;;5.83;1.93;;;14.20;99.40;;;;;;4976592;28;20919;-74
2023/05/16 09:05:10;;;;;;;6.60;2.23;;;14.20;99.30;;;;;;4976172;28;21004;-74
2023/05/16 09:07:39;;;;;;;5.70;2.10;;;14.10;99.20;;;;;;4975220;28;20509;-73
2023/05/16 09:10:10;;;;;;;8.87;2.50;;;14.10;99.00;;;;;;4976910;28;20520;-73
2023/05/16 09:12:40;;;;;;;6.60;2.80;;;14.00;98.50;;;;;;4975130;28;20457;-74
2023/05/16 09:15:09;;;;;;;6.33;2.17;;;14.10;98.40;;;;;;4976161;28;21017;-73
2023/05/16 09:17:39;;;;;;;8.53;2.43;;;14.10;98.30;;;;;;4976286;28;20583;-73
2023/05/16 09:20:11;;;;;;;6.60;2.10;;;14.20;98.00;;;;;;4976221;28;20454;-74
2023/05/16 09:22:40;;;;;;;7.90;2.43;;;14.30;98.00;;;;;;4976223;28;20529;-74
2023/05/16 09:25:17;;;;;;;6.67;2.60;;;14.40;97.50;;;;;;4976198;28;20512;-73
2023/05/16 09:27:59;;;;;;;5.70;2.60;;;14.40;97.20;;;;;;4976119;28;20432;-74
2023/05/16 09:30:30;;;;;;;10.63;2.60;;;14.30;97.00;;;;;;4976587;28;20485;-74
2023/05/16 09:32:59;;;;;;;6.40;2.20;;;14.30;96.80;;;;;;4976414;28;20856;-74
2023/05/16 09:35:27;;;;;;;5.40;1.70;;;14.30;96.80;;;;;;4976055;28;20488;-73
2023/05/16 09:38:15;;;;;;;4.73;1.93;;;14.30;96.70;;;;;;4975919;28;20458;-74
2023/05/16 09:40:46;;;;;;;5.80;1.90;;;14.40;96.80;;;;;;4976282;28;20825;-74
2023/05/16 09:43:16;;;;;;;6.17;2.07;;;14.40;96.70;;;;;;4974446;28;20446;-73
2023/05/16 09:45:47;;;;;;;6.63;1.90;;;14.50;96.70;;;;;;4975359;28;20979;-73
2023/05/16 09:48:16;;;;;;;8.33;1.83;;;14.60;96.60;;;;;;4976213;28;20429;-73
2023/05/16 09:50:51;;;;;;;7.47;2.07;;;14.60;96.10;;;;;;4975655;28;20522;-73
2023/05/16 09:53:26;;;;;;;4.70;2.20;;;14.70;95.80;;;;;;4975743;28;20794;-73
2023/05/16 09:56:04;;;;;;;6.80;2.17;;;14.80;95.50;;;;;;4975647;28;20466;-74
2023/05/16 09:58:33;;;;;;;6.40;2.27;;;14.90;95.40;;;;;;4975683;28;20424;-73
2023/05/16 10:01:02;;;;;;;5.97;2.30;;;14.90;95.50;;;;;;4975415;28;20524;-74
2023/05/16 10:03:30;;;;;;;8.50;2.50;;;14.90;95.50;;;;;;4975632;28;20484;-74
2023/05/16 10:06:00;;;;;;;7.37;2.27;;;14.80;95.60;;;;;;4974945;28;20537;-74
2023/05/16 10:08:31;;;;;;;7.27;2.17;;;14.70;95.90;;;;;;4974089;28;20533;-74
2023/05/16 10:10:59;;;;;;;5.53;2.40;;;14.60;95.90;;;;;;4975204;28;20426;-74
2023/05/16 10:13:30;;;;;;;7.70;2.20;;;14.30;96.10;;;;;;4974793;28;20441;-74
2023/05/16 10:16:00;;;;;;;8.37;2.73;;;14.10;96.60;;;;;;4974699;28;20819;-74
2023/05/16 10:18:30;;;;;;;5.33;1.77;;;13.80;97.10;;;;;;4975237;28;20532;-75
2023/05/16 10:21:04;;;;;;;5.67;2.13;;;13.50;97.70;;;;;;4973237;28;20901;-75
2023/05/16 10:23:34;;;;;;;5.73;1.60;;;13.30;98.30;;;;;;4975037;28;20433;-74
2023/05/16 10:26:04;;;;;;;5.90;2.07;;;13.10;98.60;;;;;;4974280;28;20915;-74
2023/05/16 10:28:36;;;;;;;5.27;2.20;;;12.90;98.80;;;;;;4974616;28;20844;-74
2023/05/16 10:31:05;;;;;;;6.83;1.97;;;12.90;99.20;;;;;;4974368;28;20441;-73
2023/05/16 10:33:36;;;;;;;6.33;2.00;;;12.90;99.50;;;;;;4973055;28;21007;-74
2023/05/16 10:36:05;;;;;;;7.10;2.10;;;12.90;99.90;;;;;;4974563;28;20461;-74
2023/05/16 10:38:34;;;;;;;5.83;2.10;;;13.00;99.90;;;;;;4973004;28;20496;-73
2023/05/16 10:41:02;;;;;;;7.50;2.33;;;13.10;99.90;;;;;;4974398;28;20875;-73
2023/05/16 10:43:32;;;;;;;6.20;2.47;;;13.20;99.90;;;;;;4974385;28;20803;-73
2023/05/16 10:46:04;;;;;;;8.67;2.50;;;13.30;99.90;;;;;;4974211;28;20500;-73
2023/05/16 10:48:34;;;;;;;4.80;2.00;;;13.40;99.90;;;;;;4974277;28;20426;-73
2023/05/16 10:51:03;;;;;;;5.00;1.60;;;13.50;99.90;;;;;;4974210;28;20532;-73
2023/05/16 10:53:33;;;;;;;6.47;1.90;;;13.40;99.90;;;;;;4974228;28;20540;-75
2023/05/16 10:56:09;;;;;;;5.57;1.73;;;13.30;99.90;;;;;;4974261;28;20544;-75
2023/05/16 10:58:45;;;;;;;3.83;1.70;;;13.10;99.90;;;;;;4974267;28;20982;-74
2023/05/16 11:01:18;;;;;;;4.50;1.77;;;12.90;99.90;;;;;;4974167;28;20421;-74
2023/05/16 11:04:07;;;;;;;6.30;1.80;;;12.80;99.90;;;;;;4974281;28;20414;-74
2023/05/16 11:06:43;;;;;;;5.43;1.67;;;12.60;99.90;;;;;;4973929;28;20434;-74
2023/05/16 11:09:26;;;;;;;6.53;2.23;;;12.60;99.90;;;;;;4972806;28;20485;-74
2023/05/16 11:12:05;;;;;;;5.50;1.90;;;12.60;99.90;;;;;;4973978;28;20421;-75
2023/05/16 11:14:38;;;;;;;7.70;2.03;;;12.60;99.90;;;;;;4973898;28;20457;-75
2023/05/16 11:17:12;;;;;;;7.73;2.20;;;12.60;99.90;;;;;;4972359;28;20489;-74
2023/05/16 11:19:43;;;;;;;6.40;3.00;;;12.70;99.90;;;;;;4977341;28;20417;-73
2023/05/16 11:22:20;;;;;;;5.97;2.20;;;12.80;99.90;;;;;;4977045;28;20520;-73
2023/05/16 11:24:57;;;;;;;10.10;2.70;;;12.90;99.90;;;;;;4977582;28;20460;-73
2023/05/16 11:27:28;;;;;;;6.37;2.10;;;12.90;99.90;;;;;;4978085;28;20472;-73
2023/05/16 11:30:00;;;;;;;7.00;2.33;;;13.00;99.90;;;;;;4977582;28;20473;-73
2023/05/16 11:32:35;;;;;;;8.53;2.93;;;13.10;99.90;;;;;;4977844;28;20433;-72
2023/05/16 11:35:04;;;;;;;6.63;2.60;;;13.10;99.90;;;;;;4977833;28;20457;-73
2023/05/16 11:37:32;;;;;;;6.70;2.47;;;13.20;99.90;;;;;;4975918;28;20476;-73
2023/05/16 11:40:01;;;;;;;5.60;2.50;;;13.10;99.90;;;;;;4977520;28;20536;-73
2023/05/16 11:42:32;;;;;;;7.57;2.10;;;13.10;99.90;;;;;;4977417;28;20480;-73
2023/05/16 11:45:05;;;;;;;8.73;2.20;;;13.10;99.90;;;;;;4975969;28;20480;-73
2023/05/16 11:47:37;;;;;;;8.50;2.87;;;13.10;99.90;;;;;;4976045;28;20470;-73
2023/05/16 11:50:06;;;;;;;12.43;3.00;;;13.00;99.90;;;;;;4977366;28;21046;-73
2023/05/16 11:52:34;;;;;;;6.90;2.20;;;13.00;99.90;;;;;;4977150;28;20533;-73
2023/05/16 11:55:05;;;;;;;7.27;2.20;;;12.90;99.90;;;;;;4977083;28;20504;-74
2023/05/16 11:57:34;;;;;;;6.37;1.90;;;12.80;99.90;;;;;;4977158;28;20465;-74
2023/05/16 12:00:06;;;;;;;8.83;2.27;;;12.50;99.90;;;;;;4975604;28;20974;-74
2023/05/16 12:02:36;;;;;;;5.87;2.10;;;12.30;99.90;;;;;;4977207;28;20445;-72
2023/05/16 12:05:08;;;;;;;6.90;2.30;;;12.10;99.90;;;;;;4977050;28;20461;-72
2023/05/16 12:07:37;;;;;;;5.17;2.10;;;11.90;99.90;;;;;;4975578;28;20453;-72
2023/05/16 12:10:06;;;;;;;4.60;2.10;;;11.80;99.90;;;;;;4976701;28;20447;-72
2023/05/16 12:12:35;;;;;;;7.17;2.80;;;11.80;99.90;;;;;;4975477;28;20449;-72
2023/05/16 12:15:05;;;;;;;5.70;2.50;;;11.80;99.90;;;;;;4976537;28;20461;-72
2023/05/16 12:17:33;;;;;;;5.80;2.10;;;11.70;99.90;;;;;;4976638;28;20453;-72
2023/05/16 12:20:05;;;;;;;5.20;2.40;;;11.70;99.90;;;;;;4976800;28;20441;-72
2023/05/16 12:22:34;;;;;;;6.10;2.50;;;11.70;99.90;;;;;;4976505;28;20464;-72
2023/05/16 12:25:24;;;;;;;6.20;2.30;;;11.70;99.90;;;;;;4976362;28;20537;-72
2023/05/16 12:27:54;;;;;;;6.60;2.70;;;11.80;99.90;;;;;;4976669;28;20765;-72
2023/05/16 12:30:23;;;;;;;7.10;2.43;;;11.90;99.90;;;;;;4976429;28;20445;-72
2023/05/16 12:33:03;;;;;;;6.80;2.57;;;11.90;99.90;;;;;;4976331;28;20446;-72
2023/05/16 12:35:40;;;;;;;6.40;2.10;;;11.90;99.90;;;;;;4976364;28;20461;-72
2023/05/16 12:38:09;;;;;;;5.83;2.27;;;12.00;99.90;;;;;;4976498;28;20468;-72
2023/05/16 12:40:39;;;;;;;6.20;2.47;;;12.10;99.90;;;;;;4976112;28;20441;-72
2023/05/16 12:43:14;;;;;;;9.80;2.90;;;12.30;99.90;;;;;;4976499;28;20552;-71
2023/05/16 12:45:43;;;;;;;7.03;2.83;;;12.40;99.90;;;;;;4976109;28;20456;-71
2023/05/16 12:48:14;;;;;;;6.90;2.00;;;12.50;99.90;;;;;;4976137;28;20438;-71
2023/05/16 12:50:45;;;;;;;7.33;2.60;;;12.70;99.90;;;;;;4976686;28;20926;-72
2023/05/16 12:53:14;;;;;;;7.03;2.40;;;12.80;99.90;;;;;;4975002;28;20442;-72
2023/05/16 12:55:43;;;;;;;6.17;2.23;;;12.90;99.90;;;;;;4976155;28;20471;-72